sensor_id;sensor_type;location;lat;lon;timestamp;temperature;humidity
16140;DHT22;8175;49.326;12.690;2022-08-21T00:01:58;16.30;99.90
16140;DHT22;8175;49.326;12.690;2022-08-21T00:04:24;16.30;99.90
16140;DHT22;8175;49.326;12.690;2022-08-21T00:06:51;16.30;99.90
16140;DHT22;8175;49.326;12.690;2022-08-21T00:09:17;16.30;99.90
16140;DHT22;8175;49.326;12.690;2022-08-21T00:11:43;16.30;99.90
16140;DHT22;8175;49.326;12.690;2022-08-21T00:14:14;16.30;99.90
16140;DHT22;8175;49.326;12.690;2022-08-21T00:16:40;16.30;99.90
16140;DHT22;8175;49.326;12.690;2022-08-21T00:19:07;16.30;99.90
16140;DHT22;8175;49.326;12.690;2022-08-21T00:21:34;16.30;99.90
16140;DHT22;8175;49.326;12.690;2022-08-21T00:24:00;16.30;99.90
16140;DHT22;8175;49.326;12.690;2022-08-21T00:26:26;16.30;99.90
16140;DHT22;8175;49.326;12.690;2022-08-21T00:28:52;16.30;99.90
16140;DHT22;8175;49.326;12.690;2022-08-21T00:31:17;16.40;99.90
16140;DHT22;8175;49.326;12.690;2022-08-21T00:33:44;16.40;99.90
16140;DHT22;8175;49.326;12.690;2022-08-21T00:36:09;16.40;99.90
16140;DHT22;8175;49.326;12.690;2022-08-21T00:38:36;16.40;99.90
16140;DHT22;8175;49.326;12.690;2022-08-21T00:41:03;16.40;99.90
16140;DHT22;8175;49.326;12.690;2022-08-21T00:43:32;16.40;99.90
16140;DHT22;8175;49.326;12.690;2022-08-21T00:45:59;16.40;99.90
16140;DHT22;8175;49.326;12.690;2022-08-21T00:48:26;16.40;99.90
16140;DHT22;8175;49.326;12.690;2022-08-21T00:53:28;16.40;99.90
16140;DHT22;8175;49.326;12.690;2022-08-21T00:55:55;16.40;99.90
16140;DHT22;8175;49.326;12.690;2022-08-21T00:58:21;16.40;99.90
16140;DHT22;8175;49.326;12.690;2022-08-21T01:00:49;16.40;99.90
16140;DHT22;8175;49.326;12.690;2022-08-21T01:03:17;16.40;99.90
16140;DHT22;8175;49.326;12.690;2022-08-21T01:05:45;16.40;99.90
16140;DHT22;8175;49.326;12.690;2022-08-21T01:08:12;16.30;99.90
16140;DHT22;8175;49.326;12.690;2022-08-21T01:10:38;16.30;99.90
16140;DHT22;8175;49.326;12.690;2022-08-21T01:13:07;16.30;99.90
16140;DHT22;8175;49.326;12.690;2022-08-21T01:15:36;16.30;99.90
16140;DHT22;8175;49.326;12.690;2022-08-21T01:18:08;16.30;99.90
16140;DHT22;8175;49.326;12.690;2022-08-21T01:20:36;16.20;99.90
16140;DHT22;8175;49.326;12.690;2022-08-21T01:23:03;16.20;99.90
16140;DHT22;8175;49.326;12.690;2022-08-21T01:25:29;16.20;99.90
16140;DHT22;8175;49.326;12.690;2022-08-21T01:27:56;16.20;99.90
16140;DHT22;8175;49.326;12.690;2022-08-21T01:30:25;16.20;99.90
16140;DHT22;8175;49.326;12.690;2022-08-21T01:32:52;16.20;99.90
16140;DHT22;8175;49.326;12.690;2022-08-21T01:35:19;16.20;99.90
16140;DHT22;8175;49.326;12.690;2022-08-21T01:37:45;16.10;99.90
16140;DHT22;8175;49.326;12.690;2022-08-21T01:40:13;16.20;99.90
16140;DHT22;8175;49.326;12.690;2022-08-21T01:42:40;16.10;99.90
16140;DHT22;8175;49.326;12.690;2022-08-21T01:45:07;16.10;99.90
16140;DHT22;8175;49.326;12.690;2022-08-21T01:47:33;16.10;99.90
16140;DHT22;8175;49.326;12.690;2022-08-21T01:49:59;16.20;99.90
16140;DHT22;8175;49.326;12.690;2022-08-21T01:52:25;16.20;99.90
16140;DHT22;8175;49.326;12.690;2022-08-21T01:54:51;16.20;99.90
16140;DHT22;8175;49.326;12.690;2022-08-21T01:57:17;16.20;99.90
16140;DHT22;8175;49.326;12.690;2022-08-21T01:59:42;16.20;99.90
16140;DHT22;8175;49.326;12.690;2022-08-21T02:02:08;16.20;99.90
16140;DHT22;8175;49.326;12.690;2022-08-21T02:04:33;16.20;99.90
16140;DHT22;8175;49.326;12.690;2022-08-21T02:07:00;16.20;99.90
16140;DHT22;8175;49.326;12.690;2022-08-21T02:09:27;16.10;99.90
16140;DHT22;8175;49.326;12.690;2022-08-21T02:11:53;16.10;99.90
16140;DHT22;8175;49.326;12.690;2022-08-21T02:14:19;16.10;99.90
16140;DHT22;8175;49.326;12.690;2022-08-21T02:16:45;16.10;99.90
16140;DHT22;8175;49.326;12.690;2022-08-21T02:19:15;16.10;99.90
16140;DHT22;8175;49.326;12.690;2022-08-21T02:21:41;16.10;99.90
16140;DHT22;8175;49.326;12.690;2022-08-21T02:24:07;16.10;99.90
16140;DHT22;8175;49.326;12.690;2022-08-21T02:26:33;16.10;99.90
16140;DHT22;8175;49.326;12.690;2022-08-21T02:28:59;16.10;99.90
16140;DHT22;8175;49.326;12.690;2022-08-21T02:31:25;16.10;99.90
16140;DHT22;8175;49.326;12.690;2022-08-21T02:33:52;16.10;99.90
16140;DHT22;8175;49.326;12.690;2022-08-21T02:36:18;16.10;99.90
16140;DHT22;8175;49.326;12.690;2022-08-21T02:38:44;16.00;99.90
16140;DHT22;8175;49.326;12.690;2022-08-21T02:41:16;16.00;99.90
16140;DHT22;8175;49.326;12.690;2022-08-21T02:43:42;16.00;99.90
16140;DHT22;8175;49.326;12.690;2022-08-21T02:46:10;15.90;99.90
16140;DHT22;8175;49.326;12.690;2022-08-21T02:48:37;15.90;99.90
16140;DHT22;8175;49.326;12.690;2022-08-21T02:51:11;15.80;99.90
16140;DHT22;8175;49.326;12.690;2022-08-21T02:53:38;15.90;99.90
16140;DHT22;8175;49.326;12.690;2022-08-21T02:56:06;15.90;99.90
16140;DHT22;8175;49.326;12.690;2022-08-21T02:58:36;15.80;99.90
16140;DHT22;8175;49.326;12.690;2022-08-21T03:01:03;15.80;99.90
16140;DHT22;8175;49.326;12.690;2022-08-21T03:03:29;15.70;99.90
16140;DHT22;8175;49.326;12.690;2022-08-21T03:05:55;15.70;99.90
16140;DHT22;8175;49.326;12.690;2022-08-21T03:08:21;15.60;99.90
16140;DHT22;8175;49.326;12.690;2022-08-21T03:10:49;15.70;99.90
16140;DHT22;8175;49.326;12.690;2022-08-21T03:13:16;15.70;99.90
16140;DHT22;8175;49.326;12.690;2022-08-21T03:15:43;15.70;99.90
16140;DHT22;8175;49.326;12.690;2022-08-21T03:18:10;15.70;99.90
16140;DHT22;8175;49.326;12.690;2022-08-21T03:20:38;15.70;99.90
16140;DHT22;8175;49.326;12.690;2022-08-21T03:23:05;15.70;99.90
16140;DHT22;8175;49.326;12.690;2022-08-21T03:25:31;15.70;99.90
16140;DHT22;8175;49.326;12.690;2022-08-21T03:27:58;15.70;99.90
16140;DHT22;8175;49.326;12.690;2022-08-21T03:30:24;15.80;99.90
16140;DHT22;8175;49.326;12.690;2022-08-21T03:32:50;15.80;99.90
16140;DHT22;8175;49.326;12.690;2022-08-21T03:35:17;15.80;99.90
16140;DHT22;8175;49.326;12.690;2022-08-21T03:37:44;15.80;99.90
16140;DHT22;8175;49.326;12.690;2022-08-21T03:40:11;15.80;99.90
16140;DHT22;8175;49.326;12.690;2022-08-21T03:42:38;15.80;99.90
16140;DHT22;8175;49.326;12.690;2022-08-21T03:45:05;15.80;99.90
16140;DHT22;8175;49.326;12.690;2022-08-21T03:47:30;15.80;99.90
16140;DHT22;8175;49.326;12.690;2022-08-21T03:49:56;15.80;99.90
16140;DHT22;8175;49.326;12.690;2022-08-21T03:52:22;15.90;99.90
16140;DHT22;8175;49.326;12.690;2022-08-21T03:54:48;15.90;99.90
16140;DHT22;8175;49.326;12.690;2022-08-21T03:57:14;15.90;99.90
16140;DHT22;8175;49.326;12.690;2022-08-21T03:59:40;15.90;99.90
16140;DHT22;8175;49.326;12.690;2022-08-21T04:02:06;15.80;99.90
16140;DHT22;8175;49.326;12.690;2022-08-21T04:04:33;15.80;99.90
16140;DHT22;8175;49.326;12.690;2022-08-21T04:06:59;15.80;99.90
16140;DHT22;8175;49.326;12.690;2022-08-21T04:09:25;15.80;99.90
16140;DHT22;8175;49.326;12.690;2022-08-21T04:11:51;15.80;99.90
16140;DHT22;8175;49.326;12.690;2022-08-21T04:14:19;15.80;99.90
16140;DHT22;8175;49.326;12.690;2022-08-21T04:16:45;15.80;99.90
16140;DHT22;8175;49.326;12.690;2022-08-21T04:19:11;15.70;99.90
16140;DHT22;8175;49.326;12.690;2022-08-21T04:21:39;15.70;99.90
16140;DHT22;8175;49.326;12.690;2022-08-21T04:24:05;15.80;99.90
16140;DHT22;8175;49.326;12.690;2022-08-21T04:26:33;15.70;99.90
16140;DHT22;8175;49.326;12.690;2022-08-21T04:29:00;15.70;99.90
16140;DHT22;8175;49.326;12.690;2022-08-21T04:31:25;15.70;99.90
16140;DHT22;8175;49.326;12.690;2022-08-21T04:33:51;15.70;99.90
16140;DHT22;8175;49.326;12.690;2022-08-21T04:36:17;15.70;99.90
16140;DHT22;8175;49.326;12.690;2022-08-21T04:38:43;15.70;99.90
16140;DHT22;8175;49.326;12.690;2022-08-21T04:41:09;15.80;99.90
16140;DHT22;8175;49.326;12.690;2022-08-21T04:43:35;15.80;99.90
16140;DHT22;8175;49.326;12.690;2022-08-21T04:46:01;15.70;99.90
16140;DHT22;8175;49.326;12.690;2022-08-21T04:48:27;15.70;99.90
16140;DHT22;8175;49.326;12.690;2022-08-21T04:51:06;15.70;99.90
16140;DHT22;8175;49.326;12.690;2022-08-21T04:56:09;15.70;99.90
16140;DHT22;8175;49.326;12.690;2022-08-21T04:58:37;15.70;99.90
16140;DHT22;8175;49.326;12.690;2022-08-21T05:01:04;15.80;99.90
16140;DHT22;8175;49.326;12.690;2022-08-21T05:03:33;15.80;99.90
16140;DHT22;8175;49.326;12.690;2022-08-21T05:06:00;15.80;99.90
16140;DHT22;8175;49.326;12.690;2022-08-21T05:08:27;15.80;99.90
16140;DHT22;8175;49.326;12.690;2022-08-21T05:10:53;15.80;99.90
16140;DHT22;8175;49.326;12.690;2022-08-21T05:13:19;15.80;99.90
16140;DHT22;8175;49.326;12.690;2022-08-21T05:15:45;15.80;99.90
16140;DHT22;8175;49.326;12.690;2022-08-21T05:18:11;15.80;99.90
16140;DHT22;8175;49.326;12.690;2022-08-21T05:20:37;15.90;99.90
16140;DHT22;8175;49.326;12.690;2022-08-21T05:23:10;15.90;99.90
16140;DHT22;8175;49.326;12.690;2022-08-21T05:25:36;15.90;99.90
16140;DHT22;8175;49.326;12.690;2022-08-21T05:28:03;15.90;99.90
16140;DHT22;8175;49.326;12.690;2022-08-21T05:30:29;16.00;99.90
16140;DHT22;8175;49.326;12.690;2022-08-21T05:32:59;16.00;99.90
16140;DHT22;8175;49.326;12.690;2022-08-21T05:35:25;16.00;99.90
16140;DHT22;8175;49.326;12.690;2022-08-21T05:37:51;16.00;99.90
16140;DHT22;8175;49.326;12.690;2022-08-21T05:40:17;16.00;99.90
16140;DHT22;8175;49.326;12.690;2022-08-21T05:42:43;16.10;99.90
16140;DHT22;8175;49.326;12.690;2022-08-21T05:45:09;16.10;99.90
16140;DHT22;8175;49.326;12.690;2022-08-21T05:47:35;16.10;99.90
16140;DHT22;8175;49.326;12.690;2022-08-21T05:50:01;16.20;99.90
16140;DHT22;8175;49.326;12.690;2022-08-21T05:52:26;16.30;99.90
16140;DHT22;8175;49.326;12.690;2022-08-21T05:54:52;16.50;99.90
16140;DHT22;8175;49.326;12.690;2022-08-21T05:57:20;16.60;99.90
16140;DHT22;8175;49.326;12.690;2022-08-21T05:59:46;16.70;99.90
16140;DHT22;8175;49.326;12.690;2022-08-21T06:02:11;16.80;99.90
16140;DHT22;8175;49.326;12.690;2022-08-21T06:04:38;16.90;99.90
16140;DHT22;8175;49.326;12.690;2022-08-21T06:07:05;16.90;99.90
16140;DHT22;8175;49.326;12.690;2022-08-21T06:09:31;16.90;99.90
16140;DHT22;8175;49.326;12.690;2022-08-21T06:11:57;16.90;99.90
16140;DHT22;8175;49.326;12.690;2022-08-21T06:14:23;17.00;99.90
16140;DHT22;8175;49.326;12.690;2022-08-21T06:16:49;17.00;99.90
16140;DHT22;8175;49.326;12.690;2022-08-21T06:19:14;17.10;99.90
16140;DHT22;8175;49.326;12.690;2022-08-21T06:21:40;17.10;99.90
16140;DHT22;8175;49.326;12.690;2022-08-21T06:24:06;17.20;99.90
16140;DHT22;8175;49.326;12.690;2022-08-21T06:26:32;17.30;99.90
16140;DHT22;8175;49.326;12.690;2022-08-21T06:28:58;17.40;99.90
16140;DHT22;8175;49.326;12.690;2022-08-21T06:31:26;17.50;99.90
16140;DHT22;8175;49.326;12.690;2022-08-21T06:33:53;17.50;99.90
16140;DHT22;8175;49.326;12.690;2022-08-21T06:36:19;17.50;99.90
16140;DHT22;8175;49.326;12.690;2022-08-21T06:38:46;17.60;99.90
16140;DHT22;8175;49.326;12.690;2022-08-21T06:41:12;17.60;99.90
16140;DHT22;8175;49.326;12.690;2022-08-21T06:43:37;17.70;99.90
16140;DHT22;8175;49.326;12.690;2022-08-21T06:46:03;17.80;99.90
16140;DHT22;8175;49.326;12.690;2022-08-21T06:48:29;18.00;99.90
16140;DHT22;8175;49.326;12.690;2022-08-21T06:50:59;18.10;99.90
16140;DHT22;8175;49.326;12.690;2022-08-21T06:53:24;18.20;99.90
16140;DHT22;8175;49.326;12.690;2022-08-21T06:55:50;18.30;99.90
16140;DHT22;8175;49.326;12.690;2022-08-21T06:58:16;18.30;99.90
16140;DHT22;8175;49.326;12.690;2022-08-21T07:00:45;18.20;99.90
16140;DHT22;8175;49.326;12.690;2022-08-21T07:03:24;18.30;99.90
16140;DHT22;8175;49.326;12.690;2022-08-21T07:05:50;18.30;99.90
16140;DHT22;8175;49.326;12.690;2022-08-21T07:08:15;18.30;99.90
16140;DHT22;8175;49.326;12.690;2022-08-21T07:10:41;18.30;99.90
16140;DHT22;8175;49.326;12.690;2022-08-21T07:13:07;18.30;99.90
16140;DHT22;8175;49.326;12.690;2022-08-21T07:15:33;18.30;99.90
16140;DHT22;8175;49.326;12.690;2022-08-21T07:18:00;18.40;99.90
16140;DHT22;8175;49.326;12.690;2022-08-21T07:20:27;18.40;99.90
16140;DHT22;8175;49.326;12.690;2022-08-21T07:22:54;18.30;99.90
16140;DHT22;8175;49.326;12.690;2022-08-21T07:25:20;18.30;99.90
16140;DHT22;8175;49.326;12.690;2022-08-21T07:27:45;18.40;99.90
16140;DHT22;8175;49.326;12.690;2022-08-21T07:30:11;18.50;99.90
16140;DHT22;8175;49.326;12.690;2022-08-21T07:32:37;18.50;99.90
16140;DHT22;8175;49.326;12.690;2022-08-21T07:35:03;18.40;99.90
16140;DHT22;8175;49.326;12.690;2022-08-21T07:37:29;18.30;99.90
16140;DHT22;8175;49.326;12.690;2022-08-21T07:39:54;18.50;99.90
16140;DHT22;8175;49.326;12.690;2022-08-21T07:42:20;18.70;99.90
16140;DHT22;8175;49.326;12.690;2022-08-21T07:44:46;18.60;99.90
16140;DHT22;8175;49.326;12.690;2022-08-21T07:47:11;18.70;99.90
16140;DHT22;8175;49.326;12.690;2022-08-21T07:49:37;18.70;99.90
16140;DHT22;8175;49.326;12.690;2022-08-21T07:52:03;18.70;99.90
16140;DHT22;8175;49.326;12.690;2022-08-21T07:54:28;18.80;99.90
16140;DHT22;8175;49.326;12.690;2022-08-21T07:56:54;18.90;99.90
16140;DHT22;8175;49.326;12.690;2022-08-21T07:59:20;19.00;99.90
16140;DHT22;8175;49.326;12.690;2022-08-21T08:01:46;19.30;99.90
16140;DHT22;8175;49.326;12.690;2022-08-21T08:04:12;20.00;99.90
16140;DHT22;8175;49.326;12.690;2022-08-21T08:06:37;21.40;99.90
16140;DHT22;8175;49.326;12.690;2022-08-21T08:09:03;21.80;99.90
16140;DHT22;8175;49.326;12.690;2022-08-21T08:11:29;21.60;99.90
16140;DHT22;8175;49.326;12.690;2022-08-21T08:13:55;21.00;99.90
16140;DHT22;8175;49.326;12.690;2022-08-21T08:16:23;20.70;99.90
16140;DHT22;8175;49.326;12.690;2022-08-21T08:18:49;20.80;99.90
16140;DHT22;8175;49.326;12.690;2022-08-21T08:21:17;21.40;99.90
16140;DHT22;8175;49.326;12.690;2022-08-21T08:23:44;21.30;99.90
16140;DHT22;8175;49.326;12.690;2022-08-21T08:26:10;21.10;99.90
16140;DHT22;8175;49.326;12.690;2022-08-21T08:28:37;21.20;99.90
16140;DHT22;8175;49.326;12.690;2022-08-21T08:31:02;21.70;99.90
16140;DHT22;8175;49.326;12.690;2022-08-21T08:33:29;21.40;99.90
16140;DHT22;8175;49.326;12.690;2022-08-21T08:35:55;21.80;99.90
16140;DHT22;8175;49.326;12.690;2022-08-21T08:38:22;22.90;99.90
16140;DHT22;8175;49.326;12.690;2022-08-21T08:41:06;23.30;99.90
16140;DHT22;8175;49.326;12.690;2022-08-21T08:43:34;23.40;99.90
16140;DHT22;8175;49.326;12.690;2022-08-21T08:46:03;23.90;99.90
16140;DHT22;8175;49.326;12.690;2022-08-21T08:48:41;24.60;99.90
16140;DHT22;8175;49.326;12.690;2022-08-21T08:51:16;25.50;99.90
16140;DHT22;8175;49.326;12.690;2022-08-21T08:53:51;26.40;99.90
16140;DHT22;8175;49.326;12.690;2022-08-21T08:56:22;25.50;99.90
16140;DHT22;8175;49.326;12.690;2022-08-21T08:58:52;24.30;99.90
16140;DHT22;8175;49.326;12.690;2022-08-21T09:01:20;23.50;99.90
16140;DHT22;8175;49.326;12.690;2022-08-21T09:03:47;23.40;99.90
16140;DHT22;8175;49.326;12.690;2022-08-21T09:09:29;23.80;99.90
16140;DHT22;8175;49.326;12.690;2022-08-21T09:20:23;22.10;99.90
16140;DHT22;8175;49.326;12.690;2022-08-21T09:25:24;24.90;99.90
16140;DHT22;8175;49.326;12.690;2022-08-21T09:27:50;26.50;99.90
16140;DHT22;8175;49.326;12.690;2022-08-21T09:30:16;27.90;99.90
16140;DHT22;8175;49.326;12.690;2022-08-21T09:32:42;27.70;99.90
16140;DHT22;8175;49.326;12.690;2022-08-21T09:35:13;26.80;99.90
16140;DHT22;8175;49.326;12.690;2022-08-21T09:37:50;26.20;99.90
16140;DHT22;8175;49.326;12.690;2022-08-21T09:43:05;24.50;99.90
16140;DHT22;8175;49.326;12.690;2022-08-21T09:45:33;26.40;99.90
16140;DHT22;8175;49.326;12.690;2022-08-21T09:50:45;28.60;99.90
16140;DHT22;8175;49.326;12.690;2022-08-21T09:53:28;27.70;99.90
16140;DHT22;8175;49.326;12.690;2022-08-21T09:56:00;25.30;99.90
16140;DHT22;8175;49.326;12.690;2022-08-21T09:58:47;22.90;99.90
16140;DHT22;8175;49.326;12.690;2022-08-21T10:01:21;21.90;99.90
16140;DHT22;8175;49.326;12.690;2022-08-21T10:03:49;21.40;99.90
16140;DHT22;8175;49.326;12.690;2022-08-21T10:06:26;21.40;99.90
16140;DHT22;8175;49.326;12.690;2022-08-21T10:09:08;22.10;99.90
16140;DHT22;8175;49.326;12.690;2022-08-21T10:11:34;24.00;99.90
16140;DHT22;8175;49.326;12.690;2022-08-21T10:16:47;28.60;99.90
16140;DHT22;8175;49.326;12.690;2022-08-21T10:24:33;27.40;96.50
16140;DHT22;8175;49.326;12.690;2022-08-21T10:30:17;24.60;99.90
16140;DHT22;8175;49.326;12.690;2022-08-21T10:35:24;24.20;99.90
16140;DHT22;8175;49.326;12.690;2022-08-21T10:40:34;23.90;99.90
16140;DHT22;8175;49.326;12.690;2022-08-21T10:43:27;23.40;99.90
16140;DHT22;8175;49.326;12.690;2022-08-21T10:48:37;25.90;99.90
16140;DHT22;8175;49.326;12.690;2022-08-21T10:53:49;27.20;99.90
16140;DHT22;8175;49.326;12.690;2022-08-21T10:56:21;27.10;99.90
16140;DHT22;8175;49.326;12.690;2022-08-21T11:02:02;28.80;95.50
16140;DHT22;8175;49.326;12.690;2022-08-21T11:04:34;29.50;93.80
16140;DHT22;8175;49.326;12.690;2022-08-21T11:07:09;30.30;87.20
16140;DHT22;8175;49.326;12.690;2022-08-21T11:09:37;30.10;87.20
16140;DHT22;8175;49.326;12.690;2022-08-21T11:12:24;30.00;83.30
16140;DHT22;8175;49.326;12.690;2022-08-21T11:17:43;30.30;78.00
16140;DHT22;8175;49.326;12.690;2022-08-21T11:20:15;30.70;80.60
16140;DHT22;8175;49.326;12.690;2022-08-21T11:22:58;30.20;81.30
16140;DHT22;8175;49.326;12.690;2022-08-21T11:25:37;31.00;84.20
16140;DHT22;8175;49.326;12.690;2022-08-21T11:28:10;31.50;74.80
16140;DHT22;8175;49.326;12.690;2022-08-21T11:33:46;31.20;75.20
16140;DHT22;8175;49.326;12.690;2022-08-21T11:36:47;31.10;76.50
16140;DHT22;8175;49.326;12.690;2022-08-21T11:45:02;30.40;78.10
16140;DHT22;8175;49.326;12.690;2022-08-21T11:47:54;31.00;72.00
16140;DHT22;8175;49.326;12.690;2022-08-21T11:50:26;30.70;67.40
16140;DHT22;8175;49.326;12.690;2022-08-21T11:52:59;30.30;70.50
16140;DHT22;8175;49.326;12.690;2022-08-21T11:55:39;30.00;71.80
16140;DHT22;8175;49.326;12.690;2022-08-21T11:58:36;30.30;72.30
16140;DHT22;8175;49.326;12.690;2022-08-21T12:01:09;29.60;74.70
16140;DHT22;8175;49.326;12.690;2022-08-21T12:04:25;29.90;72.30
16140;DHT22;8175;49.326;12.690;2022-08-21T12:06:33;30.20;74.50
16140;DHT22;8175;49.326;12.690;2022-08-21T12:09:05;30.60;72.40
16140;DHT22;8175;49.326;12.690;2022-08-21T12:11:31;30.60;73.90
16140;DHT22;8175;49.326;12.690;2022-08-21T12:16:35;29.00;78.20
16140;DHT22;8175;49.326;12.690;2022-08-21T12:21:50;28.80;72.20
16140;DHT22;8175;49.326;12.690;2022-08-21T12:24:19;27.20;79.00
16140;DHT22;8175;49.326;12.690;2022-08-21T12:29:29;27.90;75.30
16140;DHT22;8175;49.326;12.690;2022-08-21T12:32:19;27.30;78.50
16140;DHT22;8175;49.326;12.690;2022-08-21T12:34:48;26.90;78.30
16140;DHT22;8175;49.326;12.690;2022-08-21T12:37:20;27.30;82.10
16140;DHT22;8175;49.326;12.690;2022-08-21T12:39:49;28.10;79.20
16140;DHT22;8175;49.326;12.690;2022-08-21T12:42:19;28.20;79.80
16140;DHT22;8175;49.326;12.690;2022-08-21T12:44:56;28.70;78.20
16140;DHT22;8175;49.326;12.690;2022-08-21T12:47:31;28.90;76.60
16140;DHT22;8175;49.326;12.690;2022-08-21T12:52:39;30.80;74.10
16140;DHT22;8175;49.326;12.690;2022-08-21T12:55:11;31.50;71.20
16140;DHT22;8175;49.326;12.690;2022-08-21T12:57:39;31.10;67.40
16140;DHT22;8175;49.326;12.690;2022-08-21T13:00:07;30.60;74.40
16140;DHT22;8175;49.326;12.690;2022-08-21T13:02:46;30.30;71.80
16140;DHT22;8175;49.326;12.690;2022-08-21T13:05:16;31.30;68.60
16140;DHT22;8175;49.326;12.690;2022-08-21T13:07:47;30.50;69.30
16140;DHT22;8175;49.326;12.690;2022-08-21T13:12:42;30.00;73.50
16140;DHT22;8175;49.326;12.690;2022-08-21T13:15:08;30.30;73.70
16140;DHT22;8175;49.326;12.690;2022-08-21T13:17:43;30.50;69.50
16140;DHT22;8175;49.326;12.690;2022-08-21T13:20:21;30.20;72.30
16140;DHT22;8175;49.326;12.690;2022-08-21T13:22:48;30.60;70.00
16140;DHT22;8175;49.326;12.690;2022-08-21T13:25:16;30.50;69.80
16140;DHT22;8175;49.326;12.690;2022-08-21T13:27:44;29.30;72.70
16140;DHT22;8175;49.326;12.690;2022-08-21T13:30:14;28.20;72.90
16140;DHT22;8175;49.326;12.690;2022-08-21T13:32:50;26.80;77.70
16140;DHT22;8175;49.326;12.690;2022-08-21T13:35:23;26.00;81.20
16140;DHT22;8175;49.326;12.690;2022-08-21T13:37:51;25.20;84.90
16140;DHT22;8175;49.326;12.690;2022-08-21T13:40:32;24.70;85.40
16140;DHT22;8175;49.326;12.690;2022-08-21T13:43:14;24.40;86.20
16140;DHT22;8175;49.326;12.690;2022-08-21T13:45:46;24.70;89.10
16140;DHT22;8175;49.326;12.690;2022-08-21T13:48:12;26.30;85.70
16140;DHT22;8175;49.326;12.690;2022-08-21T13:50:39;27.80;81.30
16140;DHT22;8175;49.326;12.690;2022-08-21T13:53:07;28.10;77.20
16140;DHT22;8175;49.326;12.690;2022-08-21T13:55:44;27.30;79.90
16140;DHT22;8175;49.326;12.690;2022-08-21T13:58:10;26.70;80.00
16140;DHT22;8175;49.326;12.690;2022-08-21T14:00:49;25.60;81.40
16140;DHT22;8175;49.326;12.690;2022-08-21T14:03:41;24.80;84.50
16140;DHT22;8175;49.326;12.690;2022-08-21T14:06:23;24.10;91.70
16140;DHT22;8175;49.326;12.690;2022-08-21T14:08:53;23.80;91.60
16140;DHT22;8175;49.326;12.690;2022-08-21T14:11:21;23.60;92.60
16140;DHT22;8175;49.326;12.690;2022-08-21T14:14:14;23.40;97.30
16140;DHT22;8175;49.326;12.690;2022-08-21T14:16:45;23.30;94.70
16140;DHT22;8175;49.326;12.690;2022-08-21T14:19:27;24.30;99.90
16140;DHT22;8175;49.326;12.690;2022-08-21T14:21:53;25.60;94.50
16140;DHT22;8175;49.326;12.690;2022-08-21T14:26:55;27.70;85.90
16140;DHT22;8175;49.326;12.690;2022-08-21T14:29:25;27.70;81.50
16140;DHT22;8175;49.326;12.690;2022-08-21T14:31:56;27.40;84.90
16140;DHT22;8175;49.326;12.690;2022-08-21T14:34:25;27.60;83.30
16140;DHT22;8175;49.326;12.690;2022-08-21T14:36:52;27.60;79.90
16140;DHT22;8175;49.326;12.690;2022-08-21T14:39:18;27.20;81.80
16140;DHT22;8175;49.326;12.690;2022-08-21T14:41:44;27.10;82.40
16140;DHT22;8175;49.326;12.690;2022-08-21T14:44:16;27.40;83.10
16140;DHT22;8175;49.326;12.690;2022-08-21T14:46:42;26.90;82.50
16140;DHT22;8175;49.326;12.690;2022-08-21T14:49:08;25.50;85.00
16140;DHT22;8175;49.326;12.690;2022-08-21T14:51:34;24.30;90.10
16140;DHT22;8175;49.326;12.690;2022-08-21T14:53:59;23.50;92.10
16140;DHT22;8175;49.326;12.690;2022-08-21T14:56:25;23.30;98.10
16140;DHT22;8175;49.326;12.690;2022-08-21T14:58:52;23.90;96.70
16140;DHT22;8175;49.326;12.690;2022-08-21T15:01:20;25.10;93.30
16140;DHT22;8175;49.326;12.690;2022-08-21T15:03:46;26.10;91.80
16140;DHT22;8175;49.326;12.690;2022-08-21T15:06:15;26.60;88.30
16140;DHT22;8175;49.326;12.690;2022-08-21T15:08:41;26.60;87.20
16140;DHT22;8175;49.326;12.690;2022-08-21T15:11:09;26.80;88.70
16140;DHT22;8175;49.326;12.690;2022-08-21T15:13:37;27.00;85.70
16140;DHT22;8175;49.326;12.690;2022-08-21T15:16:03;27.10;81.60
16140;DHT22;8175;49.326;12.690;2022-08-21T15:18:29;27.10;83.40
16140;DHT22;8175;49.326;12.690;2022-08-21T15:20:56;27.00;83.00
16140;DHT22;8175;49.326;12.690;2022-08-21T15:23:22;26.80;84.00
16140;DHT22;8175;49.326;12.690;2022-08-21T15:25:48;26.80;83.60
16140;DHT22;8175;49.326;12.690;2022-08-21T15:28:15;26.30;84.00
16140;DHT22;8175;49.326;12.690;2022-08-21T15:30:43;25.90;87.00
16140;DHT22;8175;49.326;12.690;2022-08-21T15:33:09;25.60;87.80
16140;DHT22;8175;49.326;12.690;2022-08-21T15:35:35;26.00;84.70
16140;DHT22;8175;49.326;12.690;2022-08-21T15:38:01;26.30;82.70
16140;DHT22;8175;49.326;12.690;2022-08-21T15:40:27;26.30;85.70
16140;DHT22;8175;49.326;12.690;2022-08-21T15:42:57;25.80;84.40
16140;DHT22;8175;49.326;12.690;2022-08-21T15:45:24;26.00;85.00
16140;DHT22;8175;49.326;12.690;2022-08-21T15:47:50;26.10;85.50
16140;DHT22;8175;49.326;12.690;2022-08-21T15:50:16;26.00;81.50
16140;DHT22;8175;49.326;12.690;2022-08-21T15:52:41;25.70;83.60
16140;DHT22;8175;49.326;12.690;2022-08-21T15:55:09;25.80;84.90
16140;DHT22;8175;49.326;12.690;2022-08-21T15:57:35;25.80;82.10
16140;DHT22;8175;49.326;12.690;2022-08-21T16:00:21;25.60;81.80
16140;DHT22;8175;49.326;12.690;2022-08-21T16:02:53;25.70;80.10
16140;DHT22;8175;49.326;12.690;2022-08-21T16:05:21;25.80;81.10
16140;DHT22;8175;49.326;12.690;2022-08-21T16:07:48;25.50;82.00
16140;DHT22;8175;49.326;12.690;2022-08-21T16:10:17;25.40;81.90
16140;DHT22;8175;49.326;12.690;2022-08-21T16:12:49;25.40;83.10
16140;DHT22;8175;49.326;12.690;2022-08-21T16:15:16;25.30;84.70
16140;DHT22;8175;49.326;12.690;2022-08-21T16:17:43;25.10;84.20
16140;DHT22;8175;49.326;12.690;2022-08-21T16:20:15;24.90;84.00
16140;DHT22;8175;49.326;12.690;2022-08-21T16:22:41;24.90;81.60
16140;DHT22;8175;49.326;12.690;2022-08-21T16:25:07;24.60;82.50
16140;DHT22;8175;49.326;12.690;2022-08-21T16:27:34;24.50;83.00
16140;DHT22;8175;49.326;12.690;2022-08-21T16:30:00;24.20;85.00
16140;DHT22;8175;49.326;12.690;2022-08-21T16:32:26;23.60;85.30
16140;DHT22;8175;49.326;12.690;2022-08-21T16:34:52;23.20;87.60
16140;DHT22;8175;49.326;12.690;2022-08-21T16:37:18;22.90;89.10
16140;DHT22;8175;49.326;12.690;2022-08-21T16:39:44;22.50;91.40
16140;DHT22;8175;49.326;12.690;2022-08-21T16:42:13;22.20;92.90
16140;DHT22;8175;49.326;12.690;2022-08-21T16:44:41;21.90;95.50
16140;DHT22;8175;49.326;12.690;2022-08-21T16:47:06;21.80;98.80
16140;DHT22;8175;49.326;12.690;2022-08-21T16:49:33;21.80;97.70
16140;DHT22;8175;49.326;12.690;2022-08-21T16:51:58;21.70;98.40
16140;DHT22;8175;49.326;12.690;2022-08-21T16:54:24;21.60;99.90
16140;DHT22;8175;49.326;12.690;2022-08-21T16:56:50;21.50;99.90